createdAt,value
2023-02-12T00:03:40.913Z,-140.45473
2023-02-12T00:08:41.858Z,-140.5975
2023-02-12T00:13:42.751Z,-141.40673
2023-02-12T00:18:43.664Z,-141.81775
2023-02-12T00:23:44.689Z,-142.31701
2023-02-12T00:28:45.605Z,-142.96672
2023-02-12T00:33:46.517Z,-143.18009
2023-02-12T00:38:47.405Z,-143.086
2023-02-12T00:43:48.330Z,-142.9076
2023-02-12T00:48:49.211Z,-142.77934
2023-02-12T00:53:50.135Z,-143.85207
2023-02-12T00:58:51.080Z,-145.34107
2023-02-12T01:03:52.067Z,-145.6899
2023-02-12T01:08:52.998Z,-145.75738
2023-02-12T01:13:53.906Z,-146.36575
2023-02-12T01:18:56.102Z,-146.09525
2023-02-12T01:23:57.242Z,-146.18697
2023-02-12T01:28:58.185Z,-146.42979
2023-02-12T01:33:59.107Z,-145.99914
2023-02-12T01:39:00.129Z,-146.51971
2023-02-12T01:44:01.147Z,-146.87659
2023-02-12T01:49:02.107Z,-147.52644
2023-02-12T01:54:03.084Z,-147.89311
2023-02-12T01:59:04.079Z,-147.76081
2023-02-12T02:04:05.076Z,-147.9285
2023-02-12T02:09:06.001Z,-148.41331
2023-02-12T02:14:06.899Z,-148.88215
2023-02-12T02:19:07.789Z,-148.82155
2023-02-12T02:24:08.697Z,-148.76741
2023-02-12T02:29:09.591Z,-148.99181
2023-02-12T02:34:10.535Z,-148.35486
2023-02-12T02:39:11.472Z,-148.82139
2023-02-12T02:44:12.540Z,-148.55864
2023-02-12T02:49:13.456Z,-148.53352
2023-02-12T02:54:14.428Z,-148.73422
2023-02-12T02:59:15.537Z,-149.31518
2023-02-12T03:04:16.503Z,-149.35472
2023-02-12T03:09:17.434Z,-150.48886
2023-02-12T03:14:18.388Z,-151.27391
2023-02-12T03:19:19.292Z,-151.7154
2023-02-12T03:24:20.330Z,-151.64253
2023-02-12T03:29:21.272Z,-151.69438
2023-02-12T03:34:22.199Z,-152.26547
2023-02-12T03:39:23.110Z,-152.63185
2023-02-12T03:44:24.182Z,-153.08764
2023-02-12T03:49:25.145Z,-152.86185
2023-02-12T03:54:26.078Z,-152.84183
2023-02-12T03:59:27.031Z,-153.73718
2023-02-12T04:04:28.225Z,-154.2253
2023-02-12T04:09:29.418Z,-154.51975
2023-02-12T04:14:30.648Z,-154.72427
2023-02-12T04:19:31.858Z,-155.01682
2023-02-12T04:24:32.756Z,-155.24018
2023-02-12T04:29:33.673Z,-155.40637
2023-02-12T04:34:34.569Z,-155.10511
2023-02-12T04:39:35.444Z,-155.37878
2023-02-12T04:44:36.350Z,-155.48472
2023-02-12T04:49:37.229Z,-155.97863
2023-02-12T04:54:38.271Z,-155.49261
2023-02-12T04:59:39.295Z,-155.53985
2023-02-12T05:04:40.236Z,-155.41995
2023-02-12T05:09:41.198Z,-155.76301
2023-02-12T05:14:42.145Z,-156.18444
2023-02-12T05:19:43.056Z,-156.05662
2023-02-12T05:24:43.969Z,-156.32453
2023-02-12T05:29:44.859Z,-156.95567
2023-02-12T05:34:45.813Z,-157.72542
2023-02-12T05:39:46.831Z,-157.81933
2023-02-12T05:44:47.743Z,-158.18667
2023-02-12T05:49:48.678Z,-158.34111
2023-02-12T05:54:49.582Z,-158.42438
2023-02-12T05:59:50.512Z,-158.36408
2023-02-12T06:04:51.436Z,-158.61992
2023-02-12T06:09:52.460Z,-158.6754
2023-02-12T06:14:53.384Z,-158.65975
2023-02-12T06:19:54.307Z,-158.91946
2023-02-12T06:24:55.237Z,-159.88267
2023-02-12T06:29:56.130Z,-160.56638
2023-02-12T06:34:57.042Z,-161.45202
2023-02-12T06:39:57.936Z,-161.8683
2023-02-12T06:44:58.859Z,-162.39465
2023-02-12T06:49:59.755Z,-162.50208
2023-02-12T06:55:00.664Z,-163.47905
2023-02-12T07:00:01.671Z,-164.57268
2023-02-12T07:05:02.725Z,-164.67525
2023-02-12T07:10:03.660Z,-164.98237
2023-02-12T07:15:04.584Z,-165.4413
2023-02-12T07:20:05.543Z,-165.43113
2023-02-12T07:25:06.468Z,-165.8509
2023-02-12T07:30:07.385Z,-166.69464
2023-02-12T07:35:08.329Z,-166.72166
2023-02-12T07:40:09.250Z,-166.62734
2023-02-12T07:45:10.205Z,-166.76543
2023-02-12T07:50:11.145Z,-167.23485
2023-02-12T07:55:12.081Z,-167.72588
2023-02-12T08:00:13.001Z,-168.11002
2023-02-12T08:05:13.914Z,-168.42148
2023-02-12T08:10:14.837Z,-168.56344
2023-02-12T08:15:15.913Z,-168.75782
2023-02-12T08:20:16.897Z,-169.01313
2023-02-12T08:25:17.861Z,-169.2273
2023-02-12T08:30:18.825Z,-170.34921
2023-02-12T08:35:19.729Z,-170.64346
2023-02-12T08:40:20.671Z,-170.93058
2023-02-12T08:45:21.625Z,-171.47574
2023-02-12T08:50:22.601Z,-171.47531
2023-02-12T08:55:23.536Z,-172.4106
2023-02-12T09:00:24.462Z,-172.96552
2023-02-12T09:05:25.423Z,-172.99864
2023-02-12T09:10:26.345Z,-173.18307
2023-02-12T09:15:27.346Z,-173.39778
2023-02-12T09:20:28.463Z,-173.68712
2023-02-12T09:25:29.757Z,-174.33674
2023-02-12T09:30:31.103Z,-175.09694
2023-02-12T09:35:32.087Z,-175.43795
2023-02-12T09:40:33.021Z,-175.79437
2023-02-12T09:45:33.924Z,-175.46908
2023-02-12T09:50:34.852Z,-175.86653
2023-02-12T09:55:35.809Z,-176.1586
2023-02-12T10:00:36.717Z,-176.41625
2023-02-12T10:05:37.750Z,-176.08652
2023-02-12T10:10:38.663Z,-175.70071
2023-02-12T10:15:39.908Z,-175.73726
2023-02-12T10:20:41.674Z,-175.52785
2023-02-12T10:25:42.805Z,-175.97873
2023-02-12T10:30:43.797Z,-175.55839
2023-02-12T10:35:44.714Z,-175.50412
2023-02-12T10:40:45.639Z,-175.38932
2023-02-12T10:45:46.613Z,-175.19841
2023-02-12T10:50:47.597Z,-175.10559
2023-02-12T10:55:48.528Z,-175.39973
2023-02-12T11:00:49.508Z,-175.42221
2023-02-12T11:05:50.438Z,-175.69606
2023-02-12T11:10:51.334Z,-175.53442
2023-02-12T11:15:52.309Z,-175.24806
2023-02-12T11:20:53.360Z,-174.87989
2023-02-12T11:25:54.672Z,-174.88308
2023-02-12T11:30:55.899Z,-175.00036
2023-02-12T11:35:56.959Z,-174.62626
2023-02-12T11:40:58.178Z,-174.75371
2023-02-12T11:45:59.378Z,-174.41178
2023-02-12T11:51:00.287Z,-174.31012
2023-02-12T11:56:01.528Z,-173.88767
2023-02-12T12:01:02.812Z,-174.00317
2023-02-12T12:06:03.758Z,-173.71706
2023-02-12T12:11:04.678Z,-173.54211
2023-02-12T12:16:05.653Z,-173.19989
2023-02-12T12:21:06.748Z,-173.69865
2023-02-12T12:26:07.694Z,-173.04194
2023-02-12T12:31:08.719Z,-172.00982
2023-02-12T12:36:09.764Z,-171.17046
2023-02-12T12:41:10.668Z,-170.37164
2023-02-12T12:46:11.619Z,-170.228
2023-02-12T12:51:12.565Z,-170.20233
2023-02-12T12:56:13.471Z,-169.76284
2023-02-12T13:01:14.538Z,-169.99711
2023-02-12T13:06:15.483Z,-169.87125
2023-02-12T13:11:16.383Z,-169.63195
2023-02-12T13:16:17.699Z,-169.07831
2023-02-12T13:21:18.686Z,-169.81348
2023-02-12T13:26:19.682Z,-169.85541
2023-02-12T13:31:32.550Z,-170.15527
2023-02-12T13:36:34.279Z,-170.22672
2023-02-12T13:41:35.208Z,-169.74318
2023-02-12T13:46:36.168Z,-169.32743
2023-02-12T13:51:37.116Z,-168.56757
2023-02-12T13:56:38.070Z,-169.07034
2023-02-12T14:01:39.092Z,-169.30443
2023-02-12T14:06:40.030Z,-168.92338
2023-02-12T14:11:40.951Z,-168.72629
2023-02-12T14:16:41.989Z,-168.50049
2023-02-12T14:21:42.911Z,-168.54131
2023-02-12T14:26:43.854Z,-169.12254
2023-02-12T14:31:44.922Z,-169.24746
2023-02-12T14:36:45.944Z,-169.03178
2023-02-12T14:41:46.960Z,-169.09446
2023-02-12T14:46:47.860Z,-169.15547
2023-02-12T14:51:48.910Z,-169.23133
2023-02-12T14:56:49.842Z,-169.14594
2023-02-12T15:01:50.808Z,-169.03152
2023-02-12T15:06:51.764Z,-169.01481
2023-02-12T15:11:52.723Z,-168.74388
2023-02-12T15:16:53.648Z,-168.79436
2023-02-12T15:21:54.692Z,-168.53068
2023-02-12T15:26:55.616Z,-168.63419
2023-02-12T15:31:56.698Z,-169.24701
2023-02-12T15:36:57.772Z,-169.75081
2023-02-12T15:41:58.710Z,-169.39738
2023-02-12T15:46:59.638Z,-169.84374
2023-02-12T15:52:00.557Z,-169.41112
2023-02-12T15:57:01.537Z,-170.2113
2023-02-12T16:02:02.587Z,-170.53014
2023-02-12T16:07:03.569Z,-170.45888
2023-02-12T16:12:04.482Z,-170.52633
2023-02-12T16:17:05.463Z,-170.6929
2023-02-12T16:22:06.415Z,-170.47374
2023-02-12T16:27:07.420Z,-170.2934
2023-02-12T16:32:08.403Z,-170.93981
2023-02-12T16:37:09.333Z,-171.25044
2023-02-12T16:42:10.238Z,-171.71522
2023-02-12T16:47:11.216Z,-171.89623
2023-02-12T16:52:12.116Z,-171.74234
2023-02-12T16:57:13.032Z,-171.98356
2023-02-12T17:02:13.930Z,-172.15797
2023-02-12T17:07:14.879Z,-172.69389
2023-02-12T17:12:15.801Z,-172.66506
2023-02-12T17:17:16.747Z,-173.46238
2023-02-12T17:22:17.712Z,-173.86264
2023-02-12T17:27:18.612Z,-174.01829
2023-02-12T17:32:19.623Z,-174.13818
2023-02-12T17:37:20.601Z,-174.47649
2023-02-12T17:42:21.565Z,-174.77921
2023-02-12T17:47:22.536Z,-175.2959
2023-02-12T17:52:23.415Z,-175.74906
2023-02-12T17:57:24.458Z,-175.89665
2023-02-12T18:02:25.350Z,-175.91052
2023-02-12T18:07:26.247Z,-176.13132
2023-02-12T18:12:27.137Z,-176.57576
2023-02-12T18:17:28.097Z,-176.69328
2023-02-12T18:22:29.501Z,-176.77298
2023-02-12T18:27:31.145Z,-176.42893
2023-02-12T18:32:32.080Z,-176.34968
2023-02-12T18:37:32.999Z,-176.27608
2023-02-12T18:42:34.008Z,-175.72639
2023-02-12T18:47:34.930Z,-175.87462
2023-02-12T18:52:35.808Z,-175.67823
2023-02-12T18:57:36.729Z,-175.28283
2023-02-12T19:02:37.643Z,-175.48214
2023-02-12T19:07:38.595Z,-175.18561
2023-02-12T19:12:39.723Z,-175.30256
2023-02-12T19:17:40.684Z,-175.17097
2023-02-12T19:22:41.726Z,-175.46826
2023-02-12T19:27:43.620Z,-175.54909
2023-02-12T19:32:44.794Z,-175.87632
2023-02-12T19:37:45.748Z,-175.82971
2023-02-12T19:42:47.143Z,-176.09892
2023-02-12T19:47:48.648Z,-176.33776
2023-02-12T19:52:49.838Z,-175.81634
2023-02-12T19:57:51.022Z,-175.23044
2023-02-12T20:02:52.231Z,-175.50492
2023-02-12T20:07:53.216Z,-175.10698
2023-02-12T20:12:54.210Z,-175.644
2023-02-12T20:17:55.417Z,-175.9593
2023-02-12T20:22:56.414Z,-175.57992
2023-02-12T20:27:57.849Z,-175.1093
2023-02-12T20:32:58.827Z,-175.50721
2023-02-12T20:37:59.873Z,-175.8419
2023-02-12T20:43:00.802Z,-175.33267
2023-02-12T20:48:01.938Z,-175.52211
2023-02-12T20:53:02.854Z,-174.85607
2023-02-12T20:58:03.806Z,-174.65652
2023-02-12T21:03:04.775Z,-174.17202
2023-02-12T21:08:05.738Z,-174.08326
2023-02-12T21:13:06.707Z,-173.97045
2023-02-12T21:18:07.689Z,-174.36416
2023-02-12T21:23:08.631Z,-174.45009
2023-02-12T21:28:09.548Z,-174.29693
2023-02-12T21:33:10.502Z,-174.37988
2023-02-12T21:38:11.467Z,-174.28295
2023-02-12T21:43:12.425Z,-173.99014
2023-02-12T21:48:13.422Z,-173.7185
2023-02-12T21:53:14.360Z,-173.89924
2023-02-12T21:58:15.246Z,-173.73756
2023-02-12T22:03:16.167Z,-173.74737
2023-02-12T22:08:17.092Z,-173.83706
2023-02-12T22:13:18.002Z,-173.59748
2023-02-12T22:18:18.942Z,-173.5263
2023-02-12T22:23:19.870Z,-173.3504
2023-02-12T22:28:20.797Z,-173.51362
2023-02-12T22:33:21.769Z,-173.27081
2023-02-12T22:38:22.689Z,-173.50367
2023-02-12T22:43:23.601Z,-173.58504
2023-02-12T22:48:24.506Z,-173.23053
2023-02-12T22:53:25.427Z,-173.59453
2023-02-12T22:58:26.329Z,-173.67949
2023-02-12T23:03:27.216Z,-174.08763
2023-02-12T23:08:28.126Z,-173.95444
2023-02-12T23:13:30.294Z,-173.7225
2023-02-12T23:18:31.659Z,-173.70245
2023-02-12T23:23:32.656Z,-173.53432
2023-02-12T23:28:33.736Z,-173.13255
2023-02-12T23:33:34.674Z,-172.63205
2023-02-12T23:38:35.599Z,-172.93536
2023-02-12T23:43:36.494Z,-172.75466
2023-02-12T23:48:37.414Z,-172.16124
2023-02-12T23:53:38.316Z,-172.3744
2023-02-12T23:58:39.248Z,-171.75671
